Time;durP1;ratioP1;P1;durP2;ratioP2;P2;SDS_P1;SDS_P2;PMS_P1;PMS_P2;Temp;Humidity;BMP_temperature;BMP_pressure;BME280_temperature;BME280_humidity;BME280_pressure;Samples;Min_cycle;Max_cycle;Signal;HPM_P1;HPM_P2
2023/11/30 00:01:31;;;;;;;5.55;2.58;;;;;;;-3.16;82.18;100429.25;5077684;28;20034;-68
2023/11/30 00:03:56;;;;;;;5.63;2.22;;;;;;;-2.94;80.82;100437.16;5094259;28;20562;-69
2023/11/30 00:06:22;;;;;;;4.15;2.35;;;;;;;-3.05;80.43;100445.03;5093136;28;20551;-69
2023/11/30 00:08:47;;;;;;;3.25;1.85;;;;;;;-3.36;81.37;100430.81;5093462;28;20347;-69
2023/11/30 00:11:12;;;;;;;3.85;2.22;;;;;;;-3.26;81.62;100426.50;5078129;28;20032;-70
2023/11/30 00:13:38;;;;;;;3.38;2.30;;;;;;;-3.24;81.55;100448.28;5062937;28;20028;-69
2023/11/30 00:16:04;;;;;;;2.80;2.13;;;;;;;-3.23;81.11;100451.75;5099768;28;20028;-69
2023/11/30 00:18:30;;;;;;;2.80;2.33;;;;;;;-3.13;80.93;100442.19;5099138;28;20024;-69
2023/11/30 00:20:55;;;;;;;4.88;2.70;;;;;;;-3.39;81.39;100447.66;5099402;28;20083;-69
2023/11/30 00:23:21;;;;;;;5.60;2.50;;;;;;;-3.40;81.03;100434.66;5099065;28;20483;-69
2023/11/30 00:25:46;;;;;;;2.78;2.15;;;;;;;-3.36;81.35;100442.16;5100257;28;20024;-69
2023/11/30 00:28:12;;;;;;;3.38;2.28;;;;;;;-3.34;81.12;100447.31;5081434;28;20043;-69
2023/11/30 00:30:37;;;;;;;3.63;2.38;;;;;;;-3.46;81.55;100456.16;5064630;28;20032;-69
2023/11/30 00:33:03;;;;;;;2.65;1.85;;;;;;;-3.46;81.62;100459.63;5099591;28;20032;-69
2023/11/30 00:35:28;;;;;;;3.15;1.95;;;;;;;-3.43;81.98;100456.75;5081969;28;20039;-69
2023/11/30 00:37:53;;;;;;;4.57;2.40;;;;;;;-3.23;81.17;100457.00;5104096;28;20084;-69
2023/11/30 00:40:19;;;;;;;3.30;2.25;;;;;;;-3.31;81.13;100468.13;5080234;28;20035;-68
2023/11/30 00:42:44;;;;;;;3.08;2.40;;;;;;;-3.28;81.01;100454.72;5097096;28;20028;-69
2023/11/30 00:45:10;;;;;;;3.00;1.95;;;;;;;-3.43;80.38;100469.91;5098280;28;20028;-69
2023/11/30 00:47:35;;;;;;;3.15;2.10;;;;;;;-3.34;80.93;100463.94;5099226;28;20049;-69
2023/11/30 00:50:00;;;;;;;4.28;2.10;;;;;;;-3.07;79.61;100462.75;5080862;28;20382;-69
2023/11/30 00:52:26;;;;;;;4.00;2.10;;;;;;;-3.19;78.81;100472.44;5099105;28;20074;-69
2023/11/30 00:54:51;;;;;;;2.88;2.03;;;;;;;-3.55;79.17;100458.50;5080676;28;20028;-69
2023/11/30 00:57:16;;;;;;;3.55;2.42;;;;;;;-3.60;79.88;100476.44;5098957;28;20036;-69
2023/11/30 00:59:42;;;;;;;5.93;1.90;;;;;;;-3.43;79.89;100484.84;5098005;28;20070;-69
2023/11/30 01:02:07;;;;;;;2.88;1.80;;;;;;;-3.62;80.01;100482.78;5114350;28;20024;-69
2023/11/30 01:04:33;;;;;;;3.08;2.05;;;;;;;-3.53;80.05;100489.97;5098878;28;20061;-69
2023/11/30 01:06:58;;;;;;;3.17;1.85;;;;;;;-3.53;78.64;100491.78;5080992;28;20085;-69
2023/11/30 01:09:24;;;;;;;2.95;2.03;;;;;;;-3.56;79.14;100492.84;5098841;28;20024;-69
2023/11/30 01:11:49;;;;;;;4.82;2.00;;;;;;;-3.55;78.71;100492.69;5098873;28;20032;-69
2023/11/30 01:14:14;;;;;;;4.30;2.30;;;;;;;-3.50;78.44;100500.25;5097424;28;20533;-69
2023/11/30 01:16:41;;;;;;;2.40;1.80;;;;;;;-3.57;79.12;100488.53;5097946;28;20028;-69
2023/11/30 01:19:07;;;;;;;3.40;2.22;;;;;;;-3.69;79.18;100487.66;5099237;28;20054;-69
2023/11/30 01:21:32;;;;;;;3.50;2.25;;;;;;;-3.90;79.64;100491.91;5096927;28;20064;-69
2023/11/30 01:23:57;;;;;;;2.80;1.90;;;;;;;-3.73;79.50;100490.66;5098134;28;20028;-69
2023/11/30 01:26:23;;;;;;;2.72;1.85;;;;;;;-3.89;80.04;100480.44;5097669;28;20063;-69
2023/11/30 01:28:48;;;;;;;3.90;2.28;;;;;;;-3.93;79.96;100487.72;5097565;28;20028;-68
2023/11/30 01:31:13;;;;;;;2.72;1.90;;;;;;;-3.75;79.99;100487.28;5080787;28;20096;-69
2023/11/30 01:33:39;;;;;;;3.42;2.33;;;;;;;-3.93;80.36;100489.50;5099839;28;20028;-69
2023/11/30 01:36:05;;;;;;;2.78;1.90;;;;;;;-4.05;80.63;100467.59;5096572;28;20035;-69
2023/11/30 01:38:31;;;;;;;4.35;2.20;;;;;;;-3.85;80.18;100493.22;5093443;28;20031;-69
2023/11/30 01:40:56;;;;;;;2.15;1.65;;;;;;;-3.90;79.99;100487.47;5098888;28;20114;-69
2023/11/30 01:43:22;;;;;;;3.08;1.88;;;;;;;-3.73;80.05;100503.78;5098187;28;20107;-69
2023/11/30 01:45:49;;;;;;;3.83;2.00;;;;;;;-3.80;79.69;100501.63;5098431;28;20016;-68
2023/11/30 01:48:16;;;;;;;4.03;2.15;;;;;;;-3.84;79.32;100513.31;5095460;28;20035;-69
2023/11/30 01:50:43;;;;;;;3.50;2.10;;;;;;;-3.92;79.11;100493.81;5075551;28;20032;-69
2023/11/30 01:53:09;;;;;;;3.63;2.20;;;;;;;-3.64;79.14;100511.84;5097087;28;20028;-68
2023/11/30 01:55:35;;;;;;;3.17;1.90;;;;;;;-3.94;79.46;100514.09;5098242;28;20115;-70
2023/11/30 01:58:02;;;;;;;2.95;1.98;;;;;;;-3.86;79.56;100509.13;5097801;28;20053;-69
2023/11/30 02:00:30;;;;;;;3.42;2.00;;;;;;;-3.91;79.42;100517.31;5096868;28;20118;-69
2023/11/30 02:02:57;;;;;;;3.40;2.22;;;;;;;-3.91;79.73;100519.94;5097921;28;20028;-69
2023/11/30 02:05:22;;;;;;;3.13;1.88;;;;;;;-3.80;79.35;100527.91;5096428;28;20044;-69
2023/11/30 02:07:48;;;;;;;3.47;2.35;;;;;;;-3.80;78.87;100527.91;5097456;28;20034;-69
2023/11/30 02:10:13;;;;;;;3.42;1.95;;;;;;;-3.90;79.53;100526.06;5096219;28;20052;-68
2023/11/30 02:12:39;;;;;;;4.53;2.10;;;;;;;-3.91;79.67;100527.00;5096525;28;20078;-69
2023/11/30 02:15:05;;;;;;;2.65;1.83;;;;;;;-3.84;78.86;100526.47;5097578;28;20036;-69
2023/11/30 02:17:30;;;;;;;3.05;2.17;;;;;;;-4.00;79.65;100520.66;5096554;28;20028;-69
2023/11/30 02:19:56;;;;;;;3.72;2.05;;;;;;;-4.02;79.74;100525.16;5095543;28;20042;-69
2023/11/30 02:22:21;;;;;;;4.03;2.30;;;;;;;-3.92;78.77;100527.97;5078798;28;20510;-69
2023/11/30 02:24:47;;;;;;;3.25;2.17;;;;;;;-4.09;78.72;100511.66;5113381;28;20020;-69
2023/11/30 02:27:12;;;;;;;3.53;2.10;;;;;;;-4.10;79.71;100536.25;5095856;28;20047;-68
2023/11/30 02:29:38;;;;;;;3.72;2.10;;;;;;;-4.15;78.67;100530.47;5095468;28;20028;-69
2023/11/30 02:32:03;;;;;;;3.80;2.20;;;;;;;-3.88;78.39;100535.50;5112404;28;20027;-69
2023/11/30 02:34:29;;;;;;;3.45;2.10;;;;;;;-4.16;78.96;100530.59;5097293;28;20039;-69
2023/11/30 02:36:54;;;;;;;3.58;2.00;;;;;;;-4.08;78.19;100536.97;5096838;28;20045;-70
2023/11/30 02:39:20;;;;;;;2.67;2.00;;;;;;;-4.26;79.15;100531.25;5096172;28;20069;-69
2023/11/30 02:41:45;;;;;;;3.88;2.08;;;;;;;-4.49;79.75;100535.53;5078503;28;20046;-68
2023/11/30 02:44:10;;;;;;;3.78;2.03;;;;;;;-4.37;80.81;100539.09;5094481;28;20097;-68
2023/11/30 02:46:36;;;;;;;3.35;2.28;;;;;;;-4.63;81.68;100535.69;5060553;28;20127;-68
2023/11/30 02:49:01;;;;;;;3.58;2.13;;;;;;;-4.57;81.19;100531.75;5095599;28;20081;-68
2023/11/30 02:51:27;;;;;;;3.05;2.10;;;;;;;-4.62;82.24;100532.09;5094079;28;20040;-68
2023/11/30 02:53:52;;;;;;;2.90;1.85;;;;;;;-4.60;81.72;100503.97;5094344;28;20027;-69
2023/11/30 02:56:17;;;;;;;5.10;2.30;;;;;;;-4.50;81.79;100518.13;5094547;28;20051;-68
2023/11/30 02:58:43;;;;;;;3.67;1.80;;;;;;;-4.35;81.60;100520.56;5096064;28;20071;-68
2023/11/30 03:01:08;;;;;;;2.45;1.75;;;;;;;-4.40;81.21;100520.91;5078449;28;20039;-69
2023/11/30 03:03:34;;;;;;;3.50;2.08;;;;;;;-4.57;82.39;100519.50;5078892;28;20025;-69
2023/11/30 03:05:59;;;;;;;2.47;1.83;;;;;;;-4.37;81.90;100515.44;5095647;28;20030;-69
2023/11/30 03:08:25;;;;;;;4.00;2.50;;;;;;;-4.54;82.77;100521.03;5095474;28;20096;-68
2023/11/30 03:10:50;;;;;;;3.33;1.73;;;;;;;-4.51;83.64;100526.09;5094709;28;20052;-69
2023/11/30 03:13:16;;;;;;;3.50;2.05;;;;;;;-4.38;84.10;100526.88;5093058;28;20035;-68
2023/11/30 03:15:47;;;;;;;3.47;2.08;;;;;;;-4.31;83.70;100516.78;5094698;28;20047;-69
2023/11/30 03:18:13;;;;;;;7.18;1.88;;;;;;;-4.20;84.17;100523.91;5096413;28;20425;-69
2023/11/30 03:20:38;;;;;;;3.20;1.95;;;;;;;-4.13;83.62;100523.34;5096516;28;20036;-69
2023/11/30 03:23:03;;;;;;;3.28;2.05;;;;;;;-4.19;83.95;100525.56;5095261;28;20028;-68
2023/11/30 03:25:30;;;;;;;2.50;2.20;;;;;;;-4.36;84.75;100530.25;5095149;28;20100;-68
2023/11/30 03:27:55;;;;;;;5.95;1.92;;;;;;;-4.34;84.99;100523.13;5095766;28;20047;-68
2023/11/30 03:30:20;;;;;;;3.83;2.10;;;;;;;-4.31;84.76;100527.28;5095067;28;20028;-69
2023/11/30 03:32:46;;;;;;;3.47;2.05;;;;;;;-4.34;84.41;100523.13;5096219;28;20096;-69
2023/11/30 03:35:11;;;;;;;2.78;1.90;;;;;;;-4.15;84.33;100525.22;5095742;28;20043;-68
2023/11/30 03:37:40;;;;;;;3.70;1.90;;;;;;;-4.20;84.44;100519.47;5094187;28;20039;-68
2023/11/30 03:40:06;;;;;;;2.80;1.65;;;;;;;-4.29;84.47;100522.78;5093435;28;20032;-68
2023/11/30 03:42:32;;;;;;;3.45;2.42;;;;;;;-4.23;84.76;100529.38;5096190;28;20028;-68
2023/11/30 03:44:57;;;;;;;2.92;1.73;;;;;;;-4.28;84.70;100532.31;5060783;28;20028;-69
2023/11/30 03:47:22;;;;;;;5.05;1.65;;;;;;;-4.04;83.18;100529.69;5094964;28;20036;-68
2023/11/30 03:49:48;;;;;;;3.38;2.20;;;;;;;-4.23;83.95;100529.38;5096539;28;20387;-69
2023/11/30 03:52:13;;;;;;;2.20;1.80;;;;;;;-4.13;83.24;100530.38;5096251;28;20032;-68
2023/11/30 03:54:38;;;;;;;3.60;2.20;;;;;;;-4.22;83.57;100545.00;5095618;28;20544;-69
2023/11/30 03:57:04;;;;;;;3.63;2.25;;;;;;;-4.12;83.39;100535.50;5093842;28;20032;-69
2023/11/30 03:59:31;;;;;;;4.72;2.20;;;;;;;-4.27;82.71;100541.91;5094880;28;20131;-69
2023/11/30 04:01:56;;;;;;;3.20;2.17;;;;;;;-4.10;82.43;100532.78;5095759;28;20415;-69
2023/11/30 04:04:21;;;;;;;2.67;2.05;;;;;;;-4.23;82.13;100532.84;5094897;28;20028;-69
2023/11/30 04:06:47;;;;;;;3.47;2.10;;;;;;;-4.32;82.99;100513.31;5094495;28;20052;-69
2023/11/30 04:09:12;;;;;;;3.50;1.92;;;;;;;-4.46;83.93;100533.66;5095935;28;20063;-69
2023/11/30 04:11:38;;;;;;;3.33;2.15;;;;;;;-4.30;83.34;100529.81;5093768;28;20103;-68
2023/11/30 04:14:05;;;;;;;3.38;2.20;;;;;;;-4.45;84.75;100535.31;5092769;28;20182;-68
2023/11/30 04:16:30;;;;;;;2.42;1.75;;;;;;;-4.44;84.99;100539.63;5076939;28;20069;-68
2023/11/30 04:18:56;;;;;;;2.85;2.17;;;;;;;-4.35;83.93;100505.66;5095097;28;20382;-69
2023/11/30 04:21:21;;;;;;;2.30;1.83;;;;;;;-4.41;82.94;100527.09;5094302;28;20394;-69
2023/11/30 04:23:46;;;;;;;3.67;2.50;;;;;;;-4.38;84.51;100537.38;5077311;28;20111;-68
2023/11/30 04:26:12;;;;;;;3.35;2.30;;;;;;;-4.46;86.36;100541.53;5095598;28;20035;-69
2023/11/30 04:28:37;;;;;;;3.03;2.40;;;;;;;-4.29;86.65;100536.72;5077139;28;20032;-68
2023/11/30 04:31:03;;;;;;;3.13;1.88;;;;;;;-4.34;87.17;100540.63;5094248;28;20028;-69
2023/11/30 04:33:29;;;;;;;5.22;2.22;;;;;;;-4.30;87.98;100537.69;5095602;28;20098;-68
2023/11/30 04:35:55;;;;;;;2.53;1.92;;;;;;;-4.54;88.07;100516.63;5077028;28;20062;-69
2023/11/30 04:38:20;;;;;;;3.55;2.60;;;;;;;-4.28;88.69;100546.28;5093949;28;20024;-68
2023/11/30 04:40:46;;;;;;;3.47;2.58;;;;;;;-3.99;87.45;100540.72;5094302;28;20542;-69
2023/11/30 04:43:11;;;;;;;2.17;1.63;;;;;;;-4.10;87.94;100533.63;5095296;28;20024;-69
2023/11/30 04:45:36;;;;;;;3.17;2.17;;;;;;;-3.89;87.35;100535.63;5095615;28;20036;-68
2023/11/30 04:48:02;;;;;;;3.42;2.13;;;;;;;-3.93;87.37;100527.13;5093477;28;20043;-69
2023/11/30 04:50:28;;;;;;;2.60;1.90;;;;;;;-4.09;88.65;100516.91;5095334;28;20020;-69
2023/11/30 04:52:54;;;;;;;4.45;2.50;;;;;;;-4.04;89.50;100533.19;5094627;28;20433;-70
2023/11/30 04:55:19;;;;;;;3.42;2.40;;;;;;;-4.03;90.25;100539.28;5094510;28;20038;-69
2023/11/30 04:57:45;;;;;;;3.22;2.13;;;;;;;-3.88;90.30;100527.63;5097994;28;20027;-69
2023/11/30 05:00:11;;;;;;;3.40;2.17;;;;;;;-3.78;90.24;100525.16;5097784;28;20035;-68
2023/11/30 05:02:40;;;;;;;4.93;2.35;;;;;;;-3.82;89.66;100535.06;5097548;28;20058;-68
2023/11/30 05:05:06;;;;;;;2.92;2.10;;;;;;;-3.86;89.73;100524.88;5081104;28;20028;-68
2023/11/30 05:07:31;;;;;;;3.70;1.95;;;;;;;-3.87;90.14;100542.47;5098306;28;20032;-68
2023/11/30 05:09:57;;;;;;;4.20;2.20;;;;;;;-3.79;90.09;100529.56;5098398;28;20032;-69
2023/11/30 05:12:22;;;;;;;3.25;2.00;;;;;;;-3.77;89.43;100542.63;5096278;28;20020;-68
2023/11/30 05:14:48;;;;;;;3.58;2.38;;;;;;;-3.85;89.56;100545.78;5094736;28;20028;-69
2023/11/30 05:17:13;;;;;;;4.38;1.92;;;;;;;-3.89;89.92;100544.34;5081012;28;20180;-69
2023/11/30 05:19:39;;;;;;;4.60;2.50;;;;;;;-3.75;90.08;100538.06;5098458;28;20034;-68
2023/11/30 05:22:04;;;;;;;2.28;2.08;;;;;;;-3.90;89.77;100542.69;5099516;28;20608;-69
2023/11/30 05:24:29;;;;;;;4.32;1.75;;;;;;;-3.79;89.21;100534.00;5098857;28;20024;-69
2023/11/30 05:26:55;;;;;;;3.05;2.40;;;;;;;-3.75;89.45;100540.69;5097512;28;20028;-69
2023/11/30 05:29:20;;;;;;;4.40;2.60;;;;;;;-3.75;88.41;100531.97;5098605;28;20429;-69
2023/11/30 05:31:45;;;;;;;3.63;2.58;;;;;;;-3.62;88.29;100536.19;5097225;28;20028;-69
2023/11/30 05:34:11;;;;;;;2.97;1.98;;;;;;;-3.69;88.10;100542.88;5098488;28;20035;-69
2023/11/30 05:36:36;;;;;;;4.00;2.53;;;;;;;-3.59;87.99;100543.88;5097309;28;20028;-66
2023/11/30 05:39:03;;;;;;;3.25;2.33;;;;;;;-3.55;87.79;100547.09;5080500;28;20092;-67
2023/11/30 05:41:29;;;;;;;4.47;2.65;;;;;;;-3.57;87.96;100546.41;5096912;28;20040;-68
2023/11/30 05:43:54;;;;;;;3.55;2.50;;;;;;;-3.47;87.43;100551.81;5093826;28;20024;-68
2023/11/30 05:46:19;;;;;;;6.47;2.38;;;;;;;-3.50;86.38;100523.09;5096035;28;20095;-69
2023/11/30 05:48:45;;;;;;;4.10;2.35;;;;;;;-3.35;86.75;100556.13;5080149;28;20035;-69
2023/11/30 05:51:12;;;;;;;2.97;2.20;;;;;;;-3.55;86.38;100547.94;5097118;28;20034;-69
2023/11/30 05:53:37;;;;;;;3.75;2.40;;;;;;;-3.48;86.98;100548.31;5097869;28;20032;-69
2023/11/30 05:56:03;;;;;;;4.28;2.40;;;;;;;-3.42;86.44;100552.28;5096829;28;20207;-69
2023/11/30 05:58:28;;;;;;;4.38;2.42;;;;;;;-3.53;87.33;100547.84;5096275;28;20454;-69
2023/11/30 06:00:54;;;;;;;3.85;2.00;;;;;;;-3.64;86.81;100534.63;5078075;28;20399;-69
2023/11/30 06:03:19;;;;;;;2.92;1.92;;;;;;;-3.51;87.77;100556.44;5096034;28;20440;-68
2023/11/30 06:05:45;;;;;;;3.78;2.70;;;;;;;-3.54;86.87;100525.13;5097624;28;20087;-68
2023/11/30 06:08:10;;;;;;;4.28;2.88;;;;;;;-3.35;87.00;100558.75;5096896;28;20032;-68
2023/11/30 06:10:36;;;;;;;3.83;2.53;;;;;;;-3.27;86.09;100552.94;5078346;28;20031;-69
2023/11/30 06:13:01;;;;;;;4.38;2.75;;;;;;;-3.30;85.37;100540.84;5094066;28;20032;-69
2023/11/30 06:15:27;;;;;;;4.50;2.67;;;;;;;-3.31;86.56;100554.97;5077483;28;20063;-69
2023/11/30 06:17:52;;;;;;;6.38;2.58;;;;;;;-3.31;85.95;100545.28;5094421;28;20040;-69
2023/11/30 06:20:18;;;;;;;4.53;2.95;;;;;;;-3.32;85.80;100529.59;5061668;28;20399;-69
2023/11/30 06:22:43;;;;;;;4.38;2.67;;;;;;;-3.34;86.65;100563.91;5095027;28;20052;-69
2023/11/30 06:25:10;;;;;;;4.13;2.97;;;;;;;-3.17;86.39;100557.38;5097129;28;20518;-69
2023/11/30 06:27:35;;;;;;;4.88;2.75;;;;;;;-3.49;86.87;100536.13;5096319;28;20028;-69
2023/11/30 06:30:00;;;;;;;3.50;2.50;;;;;;;-3.33;86.39;100562.94;5097659;28;20030;-68
2023/11/30 06:32:26;;;;;;;4.53;2.72;;;;;;;-3.35;86.58;100532.44;5096421;28;20028;-69
2023/11/30 06:34:52;;;;;;;4.20;2.38;;;;;;;-3.38;87.08;100562.47;5079346;28;20056;-69
2023/11/30 06:37:17;;;;;;;5.78;3.15;;;;;;;-3.28;87.59;100577.53;5096117;28;20054;-69
2023/11/30 06:39:43;;;;;;;5.22;2.90;;;;;;;-3.26;87.38;100573.84;5095501;28;20430;-69
2023/11/30 06:42:08;;;;;;;3.53;2.47;;;;;;;-3.42;87.94;100566.28;5092537;28;20482;-69
2023/11/30 06:44:33;;;;;;;9.60;3.10;;;;;;;-3.31;88.65;100576.00;5061358;28;20035;-69
2023/11/30 06:46:59;;;;;;;4.93;2.60;;;;;;;-3.42;89.13;100553.13;5095689;28;20016;-69
2023/11/30 06:49:24;;;;;;;4.50;2.80;;;;;;;-3.20;88.76;100580.44;5079164;28;20032;-69
2023/11/30 06:51:49;;;;;;;3.97;2.58;;;;;;;-3.18;88.38;100575.91;5095777;28;20028;-68
2023/11/30 06:54:15;;;;;;;3.95;2.63;;;;;;;-3.04;88.55;100578.34;5095483;28;20039;-69
2023/11/30 06:56:40;;;;;;;4.28;2.90;;;;;;;-2.83;86.76;100581.94;5095901;28;20032;-69
2023/11/30 06:59:06;;;;;;;6.78;3.00;;;;;;;-2.90;86.18;100564.09;5096576;28;20127;-69
2023/11/30 07:01:31;;;;;;;3.58;2.67;;;;;;;-2.99;85.99;100588.50;5097287;28;20043;-69
2023/11/30 07:03:56;;;;;;;3.40;2.42;;;;;;;-2.88;86.80;100596.41;5078430;28;20020;-69
2023/11/30 07:06:22;;;;;;;4.95;3.05;;;;;;;-2.91;87.10;100594.03;5095737;28;20394;-69
2023/11/30 07:08:48;;;;;;;3.92;3.00;;;;;;;-3.00;88.02;100598.19;5096907;28;20040;-69
2023/11/30 07:11:14;;;;;;;4.00;2.70;;;;;;;-2.84;87.32;100589.97;5096721;28;20130;-69
2023/11/30 07:13:40;;;;;;;5.13;3.00;;;;;;;-2.86;87.00;100597.97;5096712;28;20095;-69
2023/11/30 07:16:07;;;;;;;4.60;3.17;;;;;;;-2.80;86.86;100593.19;5095509;28;20056;-69
2023/11/30 07:18:33;;;;;;;4.05;2.67;;;;;;;-2.88;86.82;100592.00;5096090;28;20063;-69
2023/11/30 07:20:59;;;;;;;5.03;3.38;;;;;;;-2.96;87.34;100590.91;5095135;28;20495;-69
2023/11/30 07:23:24;;;;;;;5.75;2.90;;;;;;;-2.95;87.29;100577.59;5095400;28;20036;-69
2023/11/30 07:25:49;;;;;;;4.65;3.20;;;;;;;-2.80;86.98;100596.66;5078170;28;20058;-69
2023/11/30 07:28:15;;;;;;;6.75;3.45;;;;;;;-2.75;86.72;100597.13;5077581;28;20032;-69
2023/11/30 07:30:42;;;;;;;4.60;3.20;;;;;;;-2.67;86.33;100592.13;5077411;28;20036;-68
2023/11/30 07:33:10;;;;;;;4.60;3.03;;;;;;;-2.59;85.81;100594.16;5095378;28;20077;-69
2023/11/30 07:35:39;;;;;;;4.72;3.22;;;;;;;-2.52;85.41;100597.97;5095546;28;20046;-69
2023/11/30 07:38:05;;;;;;;5.82;3.28;;;;;;;-2.54;85.72;100601.72;5095930;28;20035;-69
2023/11/30 07:40:33;;;;;;;3.95;3.15;;;;;;;-2.61;86.31;100596.09;5096075;28;20437;-69
2023/11/30 07:42:59;;;;;;;4.13;2.92;;;;;;;-2.45;85.54;100595.69;5095800;28;20020;-69
2023/11/30 07:45:25;;;;;;;5.05;3.28;;;;;;;-2.51;86.36;100599.69;5077513;28;20030;-66
2023/11/30 07:47:50;;;;;;;4.82;2.90;;;;;;;-2.39;85.73;100601.34;5094524;28;20546;-69
2023/11/30 07:50:16;;;;;;;4.55;3.10;;;;;;;-2.33;85.64;100599.19;5094248;28;20036;-69
2023/11/30 07:52:44;;;;;;;4.47;2.88;;;;;;;-2.34;86.34;100602.78;5096011;28;20123;-68
2023/11/30 07:55:10;;;;;;;4.22;2.92;;;;;;;-2.40;86.03;100577.75;5094594;28;20050;-69
2023/11/30 07:57:36;;;;;;;5.07;3.22;;;;;;;-2.06;86.18;100612.78;5095099;28;20391;-69
2023/11/30 08:00:06;;;;;;;4.68;3.28;;;;;;;-1.96;85.81;100619.00;5095136;28;20052;-68
2023/11/30 08:02:32;;;;;;;4.85;3.20;;;;;;;-1.88;85.19;100617.59;5094760;28;20045;-68
2023/11/30 08:04:57;;;;;;;5.93;3.30;;;;;;;-1.95;85.17;100618.06;5095729;28;20048;-67
2023/11/30 08:07:22;;;;;;;4.30;3.20;;;;;;;-1.71;84.61;100615.25;5093395;28;20028;-67
2023/11/30 08:09:49;;;;;;;5.78;3.55;;;;;;;-1.95;86.20;100614.59;5092758;28;20024;-69
2023/11/30 08:12:14;;;;;;;4.78;3.67;;;;;;;-1.95;86.68;100620.72;5077926;28;20089;-68
2023/11/30 08:14:40;;;;;;;5.05;3.60;;;;;;;-1.87;87.17;100621.88;5061161;28;20036;-67
2023/11/30 08:17:05;;;;;;;6.28;3.90;;;;;;;-1.71;87.49;100627.59;5096436;28;20035;-67
2023/11/30 08:19:32;;;;;;;5.00;4.18;;;;;;;-1.59;87.11;100623.97;5094602;28;20032;-67
2023/11/30 08:21:58;;;;;;;5.28;3.90;;;;;;;-1.39;86.09;100621.47;5095323;28;20028;-68
2023/11/30 08:24:23;;;;;;;6.45;4.15;;;;;;;-1.49;86.59;100630.19;5094152;28;20085;-69
2023/11/30 08:26:48;;;;;;;5.93;3.95;;;;;;;-1.37;86.63;100619.56;5060789;28;20028;-69
2023/11/30 08:29:15;;;;;;;6.20;4.20;;;;;;;-1.40;87.18;100604.81;5095905;28;20024;-68
2023/11/30 08:31:41;;;;;;;5.72;3.92;;;;;;;-1.46;87.67;100626.41;5063510;28;20077;-69
2023/11/30 08:34:06;;;;;;;6.57;4.43;;;;;;;-1.29;88.02;100619.75;5096719;28;20115;-69
2023/11/30 08:36:31;;;;;;;6.45;4.60;;;;;;;-1.29;88.02;100620.59;5097935;28;20032;-69
2023/11/30 08:38:57;;;;;;;6.82;4.75;;;;;;;-1.15;87.70;100630.03;5097981;28;20087;-68
2023/11/30 08:41:22;;;;;;;6.55;5.07;;;;;;;-1.40;89.17;100620.66;5099601;28;20039;-69
2023/11/30 08:43:48;;;;;;;7.07;4.65;;;;;;;-1.23;88.96;100627.16;5099775;28;20028;-68
2023/11/30 08:46:13;;;;;;;7.65;4.57;;;;;;;-1.21;89.58;100631.34;5099569;28;20052;-68
2023/11/30 08:48:38;;;;;;;6.80;4.45;;;;;;;-1.06;88.92;100621.34;5099702;28;20039;-68
2023/11/30 08:51:04;;;;;;;6.30;4.60;;;;;;;-1.13;88.62;100620.16;5098748;28;20032;-68
2023/11/30 08:53:29;;;;;;;6.38;4.80;;;;;;;-0.97;87.93;100619.72;5099418;28;20123;-68
2023/11/30 08:55:55;;;;;;;7.22;4.35;;;;;;;-1.13;88.48;100601.66;5098226;28;20055;-68
2023/11/30 08:58:20;;;;;;;5.45;4.30;;;;;;;-1.08;89.25;100631.19;5080848;28;20132;-68
2023/11/30 09:00:45;;;;;;;6.50;4.65;;;;;;;-1.05;88.94;100623.00;5081140;28;20027;-69
2023/11/30 09:03:11;;;;;;;6.70;4.60;;;;;;;-1.02;90.05;100630.66;5080946;28;20123;-68
2023/11/30 09:05:38;;;;;;;7.30;5.28;;;;;;;-0.75;88.83;100624.03;5099271;28;20048;-69
2023/11/30 09:08:03;;;;;;;6.43;4.53;;;;;;;-0.70;87.70;100627.09;5099285;28;20028;-69
2023/11/30 09:10:29;;;;;;;8.07;5.15;;;;;;;-0.89;88.01;100629.63;5080447;28;20032;-69
2023/11/30 09:12:55;;;;;;;6.60;4.95;;;;;;;-0.90;89.09;100626.13;5095109;28;20029;-69
2023/11/30 09:15:21;;;;;;;7.38;4.78;;;;;;;-0.84;88.54;100632.72;5096298;28;20169;-69
2023/11/30 09:17:46;;;;;;;6.13;5.00;;;;;;;-0.66;87.45;100635.59;5080412;28;20119;-69
2023/11/30 09:20:11;;;;;;;7.18;4.90;;;;;;;-0.43;86.55;100638.91;5097008;28;20058;-69
2023/11/30 09:22:37;;;;;;;6.78;4.57;;;;;;;-0.67;87.68;100634.75;5098509;28;20063;-69
2023/11/30 09:25:04;;;;;;;7.40;4.68;;;;;;;-0.78;87.36;100606.63;5098313;28;20137;-69
2023/11/30 09:27:30;;;;;;;7.10;4.72;;;;;;;-0.47;87.12;100647.09;5098168;28;20344;-69
2023/11/30 09:29:55;;;;;;;6.95;4.72;;;;;;;-0.72;88.68;100634.34;5097181;28;20057;-70
2023/11/30 09:32:22;;;;;;;7.60;5.47;;;;;;;-0.58;88.53;100643.72;5098365;28;20020;-69
2023/11/30 09:34:48;;;;;;;7.18;5.22;;;;;;;-0.34;88.28;100646.88;5097803;28;20109;-69
2023/11/30 09:37:13;;;;;;;6.65;4.72;;;;;;;-0.44;88.49;100643.38;5097257;28;20028;-69
2023/11/30 09:39:40;;;;;;;5.35;3.72;;;;;;;-0.42;88.88;100646.72;5097715;28;20107;-69
2023/11/30 09:42:05;;;;;;;5.90;4.45;;;;;;;-0.51;89.54;100644.88;5096776;28;20020;-69
2023/11/30 09:44:31;;;;;;;5.43;4.40;;;;;;;-0.27;89.80;100642.72;5096949;28;20031;-69
2023/11/30 09:46:56;;;;;;;7.85;5.13;;;;;;;-0.09;88.48;100652.72;5097504;28;20042;-69
2023/11/30 09:49:22;;;;;;;8.07;4.72;;;;;;;-0.02;88.55;100651.19;5097223;28;20028;-69
2023/11/30 09:51:50;;;;;;;6.85;4.07;;;;;;;-0.03;88.67;100658.28;5097970;28;20486;-69
2023/11/30 09:54:22;;;;;;;7.15;4.57;;;;;;;-0.05;88.76;100635.59;5098403;28;20153;-70
2023/11/30 09:56:48;;;;;;;5.10;3.50;;;;;;;-0.21;89.09;100629.97;5097089;28;20224;-69
2023/11/30 09:59:13;;;;;;;6.63;4.18;;;;;;;-0.16;90.30;100639.19;5096982;28;20056;-69
2023/11/30 10:01:40;;;;;;;5.75;4.30;;;;;;;0.02;89.50;100651.75;5079915;28;20043;-69
2023/11/30 10:04:15;;;;;;;6.80;4.60;;;;;;;0.14;88.99;100650.69;5098293;28;20036;-69
2023/11/30 10:06:42;;;;;;;6.78;4.38;;;;;;;0.28;88.17;100647.66;5098248;28;20024;-69
2023/11/30 10:09:17;;;;;;;5.65;3.92;;;;;;;0.19;89.16;100654.59;5095676;28;20028;-69
2023/11/30 10:11:42;;;;;;;7.07;4.20;;;;;;;0.40;87.16;100620.09;5093213;28;20035;-69
2023/11/30 10:14:08;;;;;;;5.18;3.85;;;;;;;0.40;86.87;100629.84;5077189;28;20051;-69
2023/11/30 10:16:35;;;;;;;5.15;3.50;;;;;;;0.39;87.17;100621.03;5095589;28;20035;-70
2023/11/30 10:19:04;;;;;;;6.22;3.58;;;;;;;0.42;87.70;100641.94;5095330;28;20034;-70
2023/11/30 10:21:30;;;;;;;4.20;3.38;;;;;;;0.52;86.88;100619.94;5096548;28;20506;-70
2023/11/30 10:23:57;;;;;;;5.10;3.17;;;;;;;0.12;87.83;100611.13;5096209;28;20020;-70
2023/11/30 10:26:24;;;;;;;4.53;3.22;;;;;;;0.54;87.88;100625.94;5078852;28;20020;-69
2023/11/30 10:28:53;;;;;;;5.93;3.22;;;;;;;0.53;88.07;100622.47;5097889;28;20515;-69
2023/11/30 10:31:21;;;;;;;5.30;3.40;;;;;;;0.69;86.39;100603.34;5097297;28;20020;-70
2023/11/30 10:33:56;;;;;;;4.35;3.17;;;;;;;0.72;86.58;100612.84;5095675;28;20482;-70
2023/11/30 10:36:25;;;;;;;3.17;2.88;;;;;;;0.82;86.37;100622.44;5095200;28;20031;-69
2023/11/30 10:38:56;;;;;;;4.70;3.28;;;;;;;0.94;85.78;100612.56;5095989;28;20048;-69
2023/11/30 10:41:30;;;;;;;3.83;2.67;;;;;;;1.02;84.79;100610.00;5096938;28;20028;-69
2023/11/30 10:43:56;;;;;;;4.10;2.85;;;;;;;0.77;85.84;100616.75;5096169;28;20012;-69
2023/11/30 10:46:24;;;;;;;19.13;11.18;;;;;;;0.84;85.92;100612.56;5096713;28;20440;-69
2023/11/30 10:48:51;;;;;;;8.95;4.82;;;;;;;0.68;86.56;100609.63;5096024;28;20032;-68
2023/11/30 10:51:19;;;;;;;10.48;6.60;;;;;;;0.73;85.45;100602.13;5097004;28;20094;-70
2023/11/30 10:54:06;;;;;;;6.18;4.65;;;;;;;0.79;85.85;100613.94;5094105;28;20024;-69
2023/11/30 10:56:32;;;;;;;6.10;4.70;;;;;;;0.93;86.06;100609.06;5076737;28;20028;-70
2023/11/30 10:58:59;;;;;;;3.83;2.80;;;;;;;1.05;85.19;100607.09;5078039;28;20142;-69
2023/11/30 11:01:26;;;;;;;4.72;3.40;;;;;;;1.16;85.01;100604.28;5096198;28;20071;-70
2023/11/30 11:03:56;;;;;;;4.10;2.78;;;;;;;1.07;84.78;100591.06;5096442;28;20020;-69
2023/11/30 11:06:25;;;;;;;3.28;2.63;;;;;;;1.24;84.63;100606.22;5094783;28;20028;-70
2023/11/30 11:09:07;;;;;;;3.10;2.45;;;;;;;1.14;84.74;100582.38;5096603;28;20387;-70
2023/11/30 11:11:33;;;;;;;4.35;2.35;;;;;;;1.24;84.02;100598.25;5096604;28;20032;-70
2023/11/30 11:14:00;;;;;;;3.25;2.40;;;;;;;1.01;85.42;100597.75;5096230;28;20035;-70
2023/11/30 11:16:37;;;;;;;6.00;2.80;;;;;;;1.10;85.99;100609.31;5095989;28;20024;-69
2023/11/30 11:19:08;;;;;;;4.15;2.90;;;;;;;1.08;85.74;100592.72;5094986;28;20042;-70
2023/11/30 11:21:38;;;;;;;4.78;2.95;;;;;;;1.27;84.75;100603.28;5096640;28;20075;-69